Time;durP1;ratioP1;P1;durP2;ratioP2;P2;SDS_P1;SDS_P2;PMS_P1;PMS_P2;Temp;Humidity;BMP_temperature;BMP_pressure;BME280_temperature;BME280_humidity;BME280_pressure;Samples;Min_cycle;Max_cycle;Signal;HPM_P1;HPM_P2
2022/04/06 00:01:23;;;;;;;34.83;14.40;;;9.10;99.90;;;;;;5066161;28;20412;-77
2022/04/06 00:03:49;;;;;;;33.60;13.70;;;9.10;99.90;;;;;;5073134;28;20052;-77
2022/04/06 00:06:15;;;;;;;29.13;13.53;;;9.10;99.90;;;;;;5077040;28;20048;-77
2022/04/06 00:08:41;;;;;;;40.67;14.00;;;9.10;99.90;;;;;;5046730;28;20044;-78
2022/04/06 00:11:08;;;;;;;31.53;13.63;;;9.10;99.90;;;;;;5074231;28;20465;-76
2022/04/06 00:13:34;;;;;;;33.43;13.80;;;9.20;99.90;;;;;;5053667;28;20480;-77
2022/04/06 00:16:02;;;;;;;36.07;13.73;;;9.20;99.90;;;;;;5073045;28;20075;-77
2022/04/06 00:18:28;;;;;;;32.70;14.80;;;9.20;99.90;;;;;;5074565;28;20415;-77
2022/04/06 00:20:54;;;;;;;34.00;14.70;;;9.20;99.90;;;;;;5036505;28;20100;-77
2022/04/06 00:23:19;;;;;;;32.50;15.73;;;9.20;99.90;;;;;;5048930;28;21888;-77
2022/04/06 00:25:45;;;;;;;32.90;15.50;;;9.20;99.90;;;;;;5053222;28;20048;-77
2022/04/06 00:28:12;;;;;;;30.90;16.23;;;9.20;99.90;;;;;;5054151;28;20543;-77
2022/04/06 00:30:38;;;;;;;33.03;15.60;;;9.20;99.90;;;;;;5048213;28;20415;-76
2022/04/06 00:33:03;;;;;;;34.90;16.20;;;9.20;99.90;;;;;;5053167;28;20040;-75
2022/04/06 00:35:29;;;;;;;35.53;15.90;;;9.20;99.90;;;;;;5069760;28;20044;-76
2022/04/06 00:37:55;;;;;;;34.03;15.50;;;9.20;99.90;;;;;;5053767;28;20504;-77
2022/04/06 00:40:22;;;;;;;30.73;16.00;;;9.20;99.90;;;;;;5070801;28;20043;-76
2022/04/06 00:42:48;;;;;;;38.10;16.17;;;9.20;99.90;;;;;;5063706;28;20127;-77
2022/04/06 00:45:15;;;;;;;32.77;14.83;;;9.20;99.90;;;;;;5052817;28;20136;-75
2022/04/06 00:47:41;;;;;;;34.20;15.30;;;9.20;99.90;;;;;;5083237;28;20147;-76
2022/04/06 00:50:08;;;;;;;37.17;15.87;;;9.20;99.90;;;;;;5052900;28;20127;-76
2022/04/06 00:52:35;;;;;;;30.77;14.47;;;9.20;99.90;;;;;;5043376;28;20123;-76
2022/04/06 00:55:01;;;;;;;33.57;15.67;;;9.20;99.90;;;;;;5052384;28;20503;-76
2022/04/06 00:57:27;;;;;;;28.03;15.20;;;9.20;99.90;;;;;;5072744;28;20044;-77
2022/04/06 00:59:55;;;;;;;37.07;15.23;;;9.20;99.90;;;;;;5070548;28;20057;-76
2022/04/06 01:02:22;;;;;;;38.87;14.47;;;9.20;99.90;;;;;;5036725;28;20049;-79
2022/04/06 01:04:48;;;;;;;32.60;15.13;;;9.20;99.90;;;;;;5044106;28;20084;-76
2022/04/06 01:07:14;;;;;;;33.10;13.73;;;9.20;99.90;;;;;;5060875;28;20071;-77
2022/04/06 01:09:40;;;;;;;34.90;15.13;;;9.20;99.90;;;;;;5056589;28;20125;-77
2022/04/06 01:12:07;;;;;;;34.67;14.83;;;9.20;99.90;;;;;;5052664;28;20649;-77
2022/04/06 01:14:33;;;;;;;32.70;14.00;;;9.20;99.90;;;;;;5069924;28;20119;-77
2022/04/06 01:17:00;;;;;;;32.67;13.20;;;9.20;99.90;;;;;;5058483;28;20587;-76
2022/04/06 01:19:34;;;;;;;32.90;14.43;;;9.20;99.90;;;;;;5069592;28;20404;-77
2022/04/06 01:22:01;;;;;;;30.27;13.60;;;9.20;99.90;;;;;;5052306;28;20056;-77
2022/04/06 01:24:28;;;;;;;36.50;14.40;;;9.20;99.90;;;;;;5077307;28;20105;-76
2022/04/06 01:26:54;;;;;;;28.10;12.97;;;9.20;99.90;;;;;;5072615;28;20068;-76
2022/04/06 01:29:20;;;;;;;31.23;13.70;;;9.20;99.90;;;;;;5073318;28;20097;-77
2022/04/06 01:31:46;;;;;;;32.37;13.87;;;9.20;99.90;;;;;;5052866;28;20045;-76
2022/04/06 01:34:12;;;;;;;32.87;14.77;;;9.20;99.90;;;;;;5051912;28;20123;-76
2022/04/06 01:36:37;;;;;;;33.53;13.97;;;9.20;99.90;;;;;;5070062;28;20480;-76
2022/04/06 01:39:03;;;;;;;34.33;13.47;;;9.20;99.90;;;;;;5056044;28;20051;-76
2022/04/06 01:41:34;;;;;;;29.17;12.10;;;9.20;99.90;;;;;;5054876;28;20049;-77
2022/04/06 01:44:00;;;;;;;28.03;12.13;;;9.20;99.90;;;;;;5067699;28;20048;-76
2022/04/06 01:46:26;;;;;;;29.13;12.70;;;9.20;99.90;;;;;;5079528;28;20446;-77
2022/04/06 01:54:22;;;;;;;26.17;11.20;;;9.20;99.90;;;;;;5068163;28;20048;-77
2022/04/06 01:56:49;;;;;;;32.67;12.00;;;9.30;99.90;;;;;;5048966;28;20059;-78
2022/04/06 01:59:15;;;;;;;27.13;12.20;;;9.20;99.90;;;;;;5059470;28;20041;-77
2022/04/06 02:01:43;;;;;;;29.63;12.27;;;9.20;99.90;;;;;;5074593;28;20059;-76
2022/04/06 02:04:13;;;;;;;34.40;11.13;;;9.30;99.90;;;;;;5059025;28;20041;-76
2022/04/06 02:06:38;;;;;;;28.10;12.00;;;9.30;99.90;;;;;;5072454;28;20062;-76
2022/04/06 02:09:04;;;;;;;29.40;12.00;;;9.30;99.90;;;;;;5079739;28;20064;-76
2022/04/06 02:11:30;;;;;;;26.27;11.00;;;9.20;99.90;;;;;;5072387;28;20045;-75
2022/04/06 02:13:57;;;;;;;29.73;11.70;;;9.20;99.90;;;;;;5075580;28;20495;-75
2022/04/06 02:16:23;;;;;;;27.30;11.00;;;9.20;99.90;;;;;;5055899;28;20041;-77
2022/04/06 02:18:49;;;;;;;25.93;10.33;;;9.20;99.90;;;;;;5039380;28;20051;-75
2022/04/06 02:21:15;;;;;;;27.00;10.40;;;9.20;99.90;;;;;;5042683;28;20040;-76
2022/04/06 02:23:41;;;;;;;25.67;10.07;;;9.20;99.90;;;;;;5071829;28;20109;-76
2022/04/06 02:26:06;;;;;;;25.60;9.57;;;9.20;99.90;;;;;;5072704;28;20044;-75
2022/04/06 02:28:32;;;;;;;25.17;9.17;;;9.20;99.90;;;;;;5055914;28;20048;-75
2022/04/06 02:30:59;;;;;;;23.10;9.27;;;9.20;99.90;;;;;;5076590;28;20047;-76
2022/04/06 02:33:25;;;;;;;21.67;9.07;;;9.20;99.90;;;;;;5074879;28;20048;-76
2022/04/06 02:35:51;;;;;;;23.23;9.13;;;9.20;99.90;;;;;;5072531;28;20537;-75
2022/04/06 02:38:17;;;;;;;22.47;9.30;;;9.20;99.90;;;;;;5062218;28;20562;-75
2022/04/06 02:40:42;;;;;;;23.33;8.73;;;9.20;99.90;;;;;;5105218;28;20119;-75
2022/04/06 02:43:08;;;;;;;21.13;8.30;;;9.20;99.90;;;;;;5058221;28;20519;-76
2022/04/06 02:45:34;;;;;;;24.13;8.37;;;9.20;99.90;;;;;;5055952;28;20045;-75
2022/04/06 02:48:01;;;;;;;21.27;8.13;;;9.20;99.90;;;;;;5071885;28;20048;-76
2022/04/06 02:50:27;;;;;;;27.40;7.87;;;9.20;99.90;;;;;;5078310;28;20052;-77
2022/04/06 02:52:52;;;;;;;22.27;9.03;;;9.20;99.90;;;;;;5071496;28;20055;-77
2022/04/06 02:55:18;;;;;;;26.27;7.80;;;9.20;99.90;;;;;;5070653;28;20044;-76
2022/04/06 02:57:44;;;;;;;22.83;8.47;;;9.20;99.90;;;;;;5055827;28;20124;-75
2022/04/06 03:00:11;;;;;;;26.13;8.80;;;9.20;99.90;;;;;;5058272;28;20047;-76
2022/04/06 03:02:36;;;;;;;27.13;9.03;;;9.20;99.90;;;;;;5053885;28;20112;-76
2022/04/06 03:05:04;;;;;;;29.43;9.03;;;9.20;99.90;;;;;;5055328;28;20132;-77
2022/04/06 03:07:29;;;;;;;29.20;10.13;;;9.20;99.90;;;;;;5053718;28;20106;-76
2022/04/06 03:09:55;;;;;;;24.10;8.93;;;9.20;99.90;;;;;;5071071;28;20040;-76
2022/04/06 03:12:21;;;;;;;28.37;9.47;;;9.20;99.90;;;;;;5073780;28;20051;-75
2022/04/06 03:14:46;;;;;;;30.50;9.43;;;9.20;99.90;;;;;;5087539;28;20473;-77
2022/04/06 03:17:15;;;;;;;31.57;9.80;;;9.20;99.90;;;;;;5073101;28;20044;-76
2022/04/06 03:19:41;;;;;;;29.47;9.60;;;9.20;99.90;;;;;;5054765;28;20144;-76
2022/04/06 03:22:09;;;;;;;28.13;8.63;;;9.20;99.90;;;;;;5071676;28;20115;-77
2022/04/06 03:24:34;;;;;;;37.03;10.43;;;9.20;99.90;;;;;;5071039;28;20048;-76
2022/04/06 03:27:00;;;;;;;32.40;10.43;;;9.20;99.90;;;;;;5049837;28;20048;-76
2022/04/06 03:29:26;;;;;;;25.73;9.90;;;9.20;99.90;;;;;;5058449;28;20040;-76
2022/04/06 03:31:52;;;;;;;40.60;11.27;;;9.20;99.90;;;;;;5054811;28;20044;-76
2022/04/06 03:34:18;;;;;;;26.93;11.33;;;9.30;99.90;;;;;;5070372;28;20051;-75
2022/04/06 03:36:43;;;;;;;28.93;11.90;;;9.30;99.90;;;;;;5060006;28;20521;-78
2022/04/06 03:39:10;;;;;;;31.30;11.53;;;9.20;99.90;;;;;;5071093;28;20056;-76
2022/04/06 03:41:36;;;;;;;34.37;12.13;;;9.30;99.90;;;;;;5052221;28;20060;-77
2022/04/06 03:44:02;;;;;;;42.47;14.03;;;9.30;99.90;;;;;;5073375;28;20075;-77
2022/04/06 03:46:28;;;;;;;33.00;12.70;;;9.30;99.90;;;;;;5059700;28;20052;-76
2022/04/06 03:48:54;;;;;;;38.23;13.03;;;9.30;99.90;;;;;;5050996;28;20042;-76
2022/04/06 03:51:19;;;;;;;32.60;13.40;;;9.30;99.90;;;;;;5054752;28;20036;-76
2022/04/06 03:53:45;;;;;;;32.10;13.37;;;9.30;99.90;;;;;;5047575;28;20121;-76
2022/04/06 03:56:12;;;;;;;31.23;13.10;;;9.30;99.90;;;;;;5053742;28;20051;-76
2022/04/06 03:58:38;;;;;;;35.50;13.73;;;9.30;99.90;;;;;;5077120;28;20040;-77
2022/04/06 04:01:06;;;;;;;33.57;12.70;;;9.30;99.90;;;;;;5076559;28;20036;-77
2022/04/06 04:03:32;;;;;;;31.80;13.30;;;9.30;99.90;;;;;;5069774;28;20043;-76
2022/04/06 04:05:57;;;;;;;28.03;12.43;;;9.30;99.90;;;;;;5077218;28;20036;-77
2022/04/06 04:08:26;;;;;;;35.13;14.07;;;9.30;99.90;;;;;;5038846;28;20049;-75
2022/04/06 04:10:52;;;;;;;40.37;14.43;;;9.40;99.90;;;;;;5077447;28;20029;-77
2022/04/06 04:13:19;;;;;;;39.60;12.93;;;9.40;99.90;;;;;;5054180;28;20469;-76
2022/04/06 04:15:44;;;;;;;32.87;13.33;;;9.40;99.90;;;;;;5054816;28;20452;-75
2022/04/06 04:18:10;;;;;;;33.77;13.03;;;9.40;99.90;;;;;;5040869;28;20095;-77
2022/04/06 04:20:36;;;;;;;29.23;12.60;;;9.30;99.90;;;;;;5084768;28;20055;-76
2022/04/06 04:23:02;;;;;;;30.30;12.63;;;9.30;99.90;;;;;;5071037;28;20041;-76
2022/04/06 04:25:28;;;;;;;28.67;12.73;;;9.30;99.90;;;;;;5033782;28;20518;-76
2022/04/06 04:27:53;;;;;;;33.10;12.53;;;9.30;99.90;;;;;;5055000;28;20118;-76
2022/04/06 04:30:21;;;;;;;30.17;11.70;;;9.30;99.90;;;;;;5070610;28;20040;-76
2022/04/06 04:32:47;;;;;;;29.73;12.10;;;9.30;99.90;;;;;;5065362;28;20496;-78
2022/04/06 04:35:13;;;;;;;27.83;11.53;;;9.30;99.90;;;;;;5056578;28;20054;-77
2022/04/06 04:37:39;;;;;;;26.33;10.33;;;9.30;99.90;;;;;;5052921;28;20044;-76
2022/04/06 04:40:06;;;;;;;32.70;10.50;;;9.30;99.90;;;;;;5055179;28;20044;-77
2022/04/06 04:42:32;;;;;;;24.97;10.77;;;9.30;99.90;;;;;;5053307;28;20044;-78
2022/04/06 04:44:59;;;;;;;30.33;9.97;;;9.30;99.90;;;;;;5073566;28;20039;-76
2022/04/06 04:47:26;;;;;;;26.87;10.27;;;9.30;99.90;;;;;;5072205;28;20044;-76
2022/04/06 04:49:51;;;;;;;28.27;9.13;;;9.30;99.90;;;;;;5070867;28;20056;-76
2022/04/06 04:52:17;;;;;;;20.57;8.40;;;9.30;99.90;;;;;;5056792;28;20036;-76
2022/04/06 04:54:43;;;;;;;23.10;8.53;;;9.20;99.90;;;;;;5052910;28;20100;-77
2022/04/06 04:57:09;;;;;;;25.13;9.10;;;9.20;99.90;;;;;;5068501;28;20044;-77
2022/04/06 04:59:34;;;;;;;24.30;8.13;;;9.20;99.90;;;;;;5069407;28;20120;-76
2022/04/06 05:02:00;;;;;;;24.07;8.77;;;9.20;99.90;;;;;;5054006;28;20119;-76
2022/04/06 05:04:28;;;;;;;22.10;8.30;;;9.20;99.90;;;;;;5070901;28;20040;-76
2022/04/06 05:06:53;;;;;;;21.73;7.73;;;9.20;99.90;;;;;;5053592;28;20056;-77
2022/04/06 05:09:19;;;;;;;23.57;8.20;;;9.10;99.90;;;;;;5057256;28;20070;-77
2022/04/06 05:11:45;;;;;;;22.83;8.00;;;9.20;99.90;;;;;;5052903;28;20123;-76
2022/04/06 05:14:11;;;;;;;20.53;7.00;;;9.10;99.90;;;;;;5054856;28;20043;-76
2022/04/06 05:16:36;;;;;;;24.70;7.73;;;9.10;99.90;;;;;;5076205;28;20044;-77
2022/04/06 05:19:02;;;;;;;22.87;7.30;;;9.10;99.90;;;;;;5058947;28;20058;-76
2022/04/06 05:21:29;;;;;;;18.27;7.17;;;9.10;99.90;;;;;;5078019;28;20049;-75
2022/04/06 05:23:57;;;;;;;20.13;6.77;;;9.10;99.90;;;;;;5051835;28;21822;-77
2022/04/06 05:26:22;;;;;;;18.43;6.97;;;9.10;99.90;;;;;;5077687;28;20123;-77
2022/04/06 05:28:48;;;;;;;19.83;6.47;;;9.10;99.90;;;;;;5065116;28;20157;-76
2022/04/06 05:31:14;;;;;;;18.70;6.40;;;9.10;99.90;;;;;;5072464;28;20047;-75
2022/04/06 05:33:40;;;;;;;20.87;7.47;;;9.10;99.90;;;;;;5074714;28;20085;-76
2022/04/06 05:36:06;;;;;;;19.00;6.30;;;9.10;99.90;;;;;;5057286;28;20068;-76
2022/04/06 05:38:34;;;;;;;23.50;6.80;;;9.10;99.90;;;;;;5064544;28;20071;-75
2022/04/06 05:41:01;;;;;;;19.03;7.20;;;9.10;99.90;;;;;;5057928;28;20044;-76
2022/04/06 05:43:27;;;;;;;21.33;7.40;;;9.10;99.90;;;;;;5058635;28;20050;-76
2022/04/06 05:45:53;;;;;;;20.37;7.80;;;9.10;99.90;;;;;;5056541;28;20116;-75
2022/04/06 05:48:18;;;;;;;16.83;6.33;;;9.10;99.90;;;;;;5074147;28;20083;-76
2022/04/06 05:50:44;;;;;;;21.43;6.60;;;9.10;99.90;;;;;;5084169;28;20048;-77
2022/04/06 05:53:10;;;;;;;21.87;6.70;;;9.10;99.90;;;;;;5060321;28;20461;-76
2022/04/06 05:55:37;;;;;;;21.60;7.00;;;9.10;99.90;;;;;;5039509;28;20075;-76
2022/04/06 05:58:03;;;;;;;20.33;6.50;;;9.10;99.90;;;;;;5056046;28;20109;-77
2022/04/06 06:00:29;;;;;;;20.80;6.00;;;9.10;99.90;;;;;;5058800;28;20052;-77
2022/04/06 06:02:54;;;;;;;19.00;5.63;;;9.10;99.90;;;;;;5057272;28;20033;-77
2022/04/06 06:05:20;;;;;;;21.33;6.37;;;9.10;99.90;;;;;;5073102;28;20051;-76
2022/04/06 06:07:46;;;;;;;14.40;6.00;;;9.10;99.90;;;;;;5052884;28;20040;-76
2022/04/06 06:10:12;;;;;;;20.97;5.73;;;9.10;99.90;;;;;;5056344;28;20048;-76
2022/04/06 06:12:39;;;;;;;16.07;4.90;;;9.10;99.90;;;;;;5056830;28;20032;-77
2022/04/06 06:15:06;;;;;;;19.60;5.33;;;9.10;99.90;;;;;;5077261;28;20044;-76
2022/04/06 06:17:36;;;;;;;16.53;4.97;;;9.10;99.90;;;;;;5058018;28;20040;-78
2022/04/06 06:20:02;;;;;;;14.07;4.53;;;9.10;99.90;;;;;;5057152;28;20076;-76
2022/04/06 06:22:28;;;;;;;13.93;4.77;;;9.00;99.90;;;;;;5054397;28;20041;-75
2022/04/06 06:24:53;;;;;;;10.93;4.33;;;9.10;99.90;;;;;;5077599;28;20051;-77
2022/04/06 06:27:19;;;;;;;17.17;4.40;;;9.10;99.90;;;;;;5072497;28;20542;-77
2022/04/06 06:29:48;;;;;;;14.23;3.90;;;9.00;99.90;;;;;;5051381;28;20054;-76
2022/04/06 06:32:13;;;;;;;16.77;4.43;;;9.10;99.90;;;;;;5052280;28;20100;-76
2022/04/06 06:34:39;;;;;;;13.97;3.90;;;9.00;99.90;;;;;;5072123;28;20040;-79
2022/04/06 06:37:05;;;;;;;13.33;3.70;;;9.10;99.90;;;;;;5077391;28;20041;-76
2022/04/06 06:39:31;;;;;;;14.73;3.67;;;9.10;99.90;;;;;;5072507;28;20048;-76
2022/04/06 06:41:57;;;;;;;13.50;3.77;;;9.00;99.90;;;;;;5055270;28;20046;-78
2022/04/06 06:44:24;;;;;;;18.97;3.50;;;9.00;99.90;;;;;;5054097;28;20040;-77
2022/04/06 06:46:51;;;;;;;10.97;2.87;;;9.00;99.90;;;;;;5057110;28;20047;-75
2022/04/06 06:49:16;;;;;;;17.97;3.70;;;9.00;99.90;;;;;;5040919;28;20044;-80
2022/04/06 06:51:42;;;;;;;16.10;3.10;;;9.00;99.90;;;;;;5058032;28;20044;-76
2022/04/06 06:54:08;;;;;;;17.17;3.00;;;9.00;99.90;;;;;;5071486;28;20071;-78
2022/04/06 06:56:34;;;;;;;14.20;3.20;;;9.00;99.90;;;;;;5054860;28;20123;-76
2022/04/06 06:59:00;;;;;;;9.60;3.00;;;9.00;99.90;;;;;;5074404;28;20040;-76
2022/04/06 07:01:26;;;;;;;13.20;3.33;;;9.00;99.90;;;;;;5072405;28;20051;-76
2022/04/06 07:03:53;;;;;;;14.10;3.20;;;9.00;99.90;;;;;;5056465;28;20102;-79
2022/04/06 07:06:18;;;;;;;16.10;3.93;;;9.10;99.90;;;;;;5076336;28;20052;-77
2022/04/06 07:08:44;;;;;;;11.00;3.00;;;9.10;99.90;;;;;;5071259;28;20049;-76
2022/04/06 07:11:10;;;;;;;14.00;3.83;;;9.10;99.90;;;;;;5059147;28;20041;-76
2022/04/06 07:13:35;;;;;;;15.70;3.50;;;9.10;99.90;;;;;;5053180;28;20442;-78
2022/04/06 07:16:01;;;;;;;20.17;3.90;;;9.20;99.90;;;;;;5057646;28;20036;-76
2022/04/06 07:18:28;;;;;;;16.03;4.17;;;9.20;99.90;;;;;;5071195;28;20045;-76
2022/04/06 07:20:55;;;;;;;14.80;3.47;;;9.20;99.90;;;;;;5070034;28;20072;-78
2022/04/06 07:23:21;;;;;;;17.60;4.00;;;9.20;99.90;;;;;;5055098;28;20123;-76
2022/04/06 07:25:46;;;;;;;20.53;5.13;;;9.10;99.90;;;;;;5054267;28;20128;-75
2022/04/06 07:28:12;;;;;;;17.37;3.93;;;9.10;99.90;;;;;;5055403;28;20526;-76
2022/04/06 07:30:38;;;;;;;15.23;3.90;;;9.10;99.90;;;;;;5049622;28;20040;-76
2022/04/06 07:33:04;;;;;;;19.97;3.60;;;9.10;99.90;;;;;;5080014;28;20457;-76
2022/04/06 07:35:31;;;;;;;15.73;3.73;;;9.10;99.90;;;;;;5054712;28;20168;-77
2022/04/06 07:37:58;;;;;;;20.30;4.50;;;9.00;99.90;;;;;;5078258;28;20082;-76
2022/04/06 07:40:24;;;;;;;20.77;4.97;;;9.10;99.90;;;;;;5072441;28;20449;-76
2022/04/06 07:42:51;;;;;;;16.43;4.10;;;9.00;99.90;;;;;;5035124;28;20144;-77
2022/04/06 07:45:18;;;;;;;19.00;4.23;;;9.10;99.90;;;;;;5075446;28;20071;-79
2022/04/06 07:47:45;;;;;;;15.70;4.30;;;9.10;99.90;;;;;;5070678;28;20048;-76
2022/04/06 07:50:14;;;;;;;16.90;4.07;;;9.10;99.90;;;;;;5054478;28;20068;-76
2022/04/06 07:52:40;;;;;;;16.87;4.10;;;9.20;99.90;;;;;;5071997;28;20082;-77
2022/04/06 07:55:09;;;;;;;16.63;4.40;;;9.20;99.90;;;;;;5070326;28;20068;-76
2022/04/06 07:57:36;;;;;;;19.23;4.27;;;9.20;99.90;;;;;;5081054;28;20040;-77
2022/04/06 08:00:05;;;;;;;12.60;4.23;;;9.20;99.90;;;;;;5054352;28;20044;-76
2022/04/06 08:02:31;;;;;;;16.00;4.87;;;9.30;99.90;;;;;;5039020;28;20043;-78
2022/04/06 08:04:57;;;;;;;24.00;5.20;;;9.30;99.90;;;;;;5047804;28;20044;-77
2022/04/06 08:07:22;;;;;;;20.43;5.73;;;9.40;99.90;;;;;;5067379;28;20044;-76
2022/04/06 08:09:48;;;;;;;18.47;5.40;;;9.40;99.90;;;;;;5053684;28;20041;-77
2022/04/06 08:12:15;;;;;;;22.57;5.07;;;9.50;99.90;;;;;;5054454;28;20033;-76
2022/04/06 08:14:41;;;;;;;16.30;4.60;;;9.50;99.90;;;;;;5068348;28;20426;-75
2022/04/06 08:17:06;;;;;;;18.23;4.77;;;9.50;99.90;;;;;;5070788;28;20048;-79
2022/04/06 08:19:32;;;;;;;19.73;5.20;;;9.50;99.90;;;;;;5071246;28;20423;-76
2022/04/06 08:21:58;;;;;;;20.70;5.07;;;9.50;99.90;;;;;;5074417;28;20040;-76
2022/04/06 08:24:24;;;;;;;21.23;5.90;;;9.50;99.90;;;;;;5068700;28;20136;-76
2022/04/06 08:26:50;;;;;;;16.37;5.43;;;9.50;99.90;;;;;;5071860;28;20320;-77
2022/04/06 08:29:17;;;;;;;19.97;5.90;;;9.60;99.90;;;;;;5069864;28;20479;-77
2022/04/06 08:31:42;;;;;;;20.53;6.80;;;9.60;99.90;;;;;;5068227;28;20047;-76
2022/04/06 08:34:08;;;;;;;18.20;6.20;;;9.50;99.90;;;;;;5070249;28;20415;-76
2022/04/06 08:36:34;;;;;;;18.50;5.97;;;9.60;99.90;;;;;;5050502;28;20056;-77
2022/04/06 08:39:19;;;;;;;19.80;6.53;;;9.60;99.90;;;;;;5068517;28;20047;-76
2022/04/06 08:41:44;;;;;;;24.03;7.57;;;9.60;99.90;;;;;;5069038;28;20037;-76
2022/04/06 08:44:10;;;;;;;20.80;5.60;;;9.60;99.90;;;;;;5051090;28;20044;-76
2022/04/06 08:46:40;;;;;;;22.70;6.37;;;9.50;99.90;;;;;;5051207;28;20045;-76
2022/04/06 08:49:06;;;;;;;18.43;5.90;;;9.50;99.90;;;;;;5034473;28;20075;-79
2022/04/06 08:51:36;;;;;;;12.83;5.00;;;9.50;99.90;;;;;;5053282;28;20056;-76
2022/04/06 08:54:02;;;;;;;17.07;5.70;;;9.50;99.90;;;;;;5051544;28;20129;-78
2022/04/06 08:56:28;;;;;;;16.10;5.57;;;9.50;99.90;;;;;;5067555;28;20036;-76
2022/04/06 08:58:54;;;;;;;20.13;4.87;;;9.40;99.90;;;;;;5053953;28;20047;-79
2022/04/06 09:01:21;;;;;;;18.50;5.00;;;9.40;99.90;;;;;;5053283;28;20129;-76
2022/04/06 09:03:49;;;;;;;14.80;5.20;;;9.40;99.90;;;;;;5051797;28;20052;-78
2022/04/06 09:06:14;;;;;;;19.07;5.97;;;9.30;99.90;;;;;;5034189;28;20238;-77
2022/04/06 09:08:42;;;;;;;20.77;5.20;;;9.30;99.90;;;;;;5031829;28;20532;-76
2022/04/06 09:11:10;;;;;;;14.90;4.43;;;9.30;99.90;;;;;;5036348;28;20036;-76
2022/04/06 09:13:36;;;;;;;18.13;4.80;;;9.40;99.90;;;;;;5087287;28;20047;-77
2022/04/06 09:16:04;;;;;;;15.07;4.77;;;9.40;99.90;;;;;;5051726;28;20040;-77
2022/04/06 09:18:33;;;;;;;13.87;4.07;;;9.50;99.90;;;;;;5053694;28;20036;-77
2022/04/06 09:21:01;;;;;;;13.37;3.70;;;9.50;99.90;;;;;;5065704;28;20049;-77
2022/04/06 09:23:29;;;;;;;16.13;4.33;;;9.60;99.90;;;;;;5052482;28;20037;-77
2022/04/06 09:26:00;;;;;;;10.93;3.67;;;9.70;99.90;;;;;;5074739;28;20128;-77
2022/04/06 09:28:26;;;;;;;11.07;3.63;;;9.90;99.90;;;;;;5070247;28;20071;-77
2022/04/06 09:30:53;;;;;;;15.10;4.00;;;10.10;99.90;;;;;;5055030;28;20086;-76
2022/04/06 09:33:20;;;;;;;7.87;3.07;;;10.20;99.90;;;;;;5075003;28;20033;-77
2022/04/06 09:35:46;;;;;;;11.33;3.30;;;10.20;99.90;;;;;;5068060;28;20561;-77
2022/04/06 09:38:15;;;;;;;11.00;2.93;;;10.20;99.90;;;;;;5053041;28;20036;-78
2022/04/06 09:40:42;;;;;;;13.30;3.27;;;10.20;99.90;;;;;;5073384;28;20067;-78
2022/04/06 09:43:08;;;;;;;13.03;3.60;;;10.20;99.90;;;;;;5075865;28;20076;-78
2022/04/06 09:48:18;;;;;;;13.32;3.88;;;10.20;99.90;;;;;;5073214;28;20032;-79
2022/04/06 09:50:54;;;;;;;12.30;3.30;;;10.10;99.90;;;;;;5040071;28;20090;-78
2022/04/06 09:53:25;;;;;;;16.77;4.07;;;10.10;99.90;;;;;;5056342;28;20079;-76
2022/04/06 09:55:54;;;;;;;14.97;4.00;;;10.00;99.90;;;;;;5074969;28;20115;-79
2022/04/06 09:58:21;;;;;;;16.93;4.80;;;10.00;99.90;;;;;;5098817;28;20110;-77
2022/04/06 10:00:48;;;;;;;11.03;4.17;;;10.10;99.90;;;;;;5106701;28;20044;-76
2022/04/06 10:03:15;;;;;;;16.90;4.67;;;10.10;99.90;;;;;;5069233;28;20048;-75
2022/04/06 10:05:44;;;;;;;19.97;5.40;;;10.20;99.90;;;;;;5053941;28;20090;-77
2022/04/06 10:08:11;;;;;;;16.50;4.40;;;10.20;99.90;;;;;;5038633;28;20131;-79
2022/04/06 10:10:42;;;;;;;15.00;4.53;;;10.30;99.90;;;;;;5066680;28;20129;-76
2022/04/06 10:13:08;;;;;;;16.00;4.57;;;10.30;99.90;;;;;;5075287;28;20087;-76
2022/04/06 10:15:35;;;;;;;14.10;4.50;;;10.30;99.90;;;;;;5072524;28;20454;-77
2022/04/06 10:18:01;;;;;;;14.80;4.30;;;10.40;99.90;;;;;;5060251;28;20093;-77
2022/04/06 10:20:38;;;;;;;12.77;4.63;;;10.40;99.90;;;;;;5059032;28;20037;-76
2022/04/06 10:23:13;;;;;;;14.90;4.60;;;10.40;99.90;;;;;;5078921;28;20036;-77
2022/04/06 10:25:50;;;;;;;15.57;5.30;;;10.40;99.90;;;;;;5074226;28;20047;-76
2022/04/06 10:28:18;;;;;;;15.90;5.10;;;10.50;99.90;;;;;;5058316;28;20051;-75
2022/04/06 10:31:16;;;;;;;22.23;5.57;;;10.50;99.90;;;;;;5077271;28;20063;-76
2022/04/06 10:33:42;;;;;;;19.10;5.23;;;10.50;99.90;;;;;;5089496;28;20684;-76
2022/04/06 10:36:17;;;;;;;15.20;5.13;;;10.50;99.90;;;;;;5049246;28;20041;-76
2022/04/06 10:39:15;;;;;;;16.63;5.37;;;10.50;99.90;;;;;;5052702;28;20040;-75
2022/04/06 10:42:12;;;;;;;19.23;5.33;;;10.50;99.90;;;;;;5096419;28;20559;-79
2022/04/06 10:44:38;;;;;;;18.30;4.90;;;10.50;99.90;;;;;;5075334;28;20072;-78
2022/04/06 10:47:06;;;;;;;12.93;4.90;;;10.50;99.90;;;;;;5093632;28;20115;-77
2022/04/06 10:49:32;;;;;;;14.87;5.47;;;10.50;99.90;;;;;;5072633;28;20132;-75
2022/04/06 10:51:59;;;;;;;11.10;4.57;;;10.50;99.90;;;;;;5073257;28;20079;-77
2022/04/06 10:54:39;;;;;;;17.87;5.20;;;10.50;99.90;;;;;;5071021;28;20048;-77
2022/04/06 10:57:07;;;;;;;16.47;5.27;;;10.50;99.90;;;;;;5058351;28;20044;-76
2022/04/06 10:59:33;;;;;;;20.67;5.60;;;10.50;99.90;;;;;;5083514;28;20039;-76
2022/04/06 11:02:18;;;;;;;13.07;4.97;;;10.50;99.90;;;;;;5057185;28;20764;-76
2022/04/06 11:04:45;;;;;;;16.83;5.30;;;10.50;99.90;;;;;;5043701;28;20560;-79
2022/04/06 11:07:11;;;;;;;17.43;4.87;;;10.50;99.90;;;;;;5073445;28;20044;-77
2022/04/06 11:12:25;;;;;;;16.50;5.73;;;10.50;99.90;;;;;;5076847;28;20040;-76
2022/04/06 11:15:17;;;;;;;16.50;7.40;;;10.50;99.90;;;;;;5052575;28;20045;-78
2022/04/06 11:17:48;;;;;;;14.67;5.70;;;10.60;99.90;;;;;;5078493;28;20071;-78
2022/04/06 11:20:15;;;;;;;17.23;7.20;;;10.60;99.90;;;;;;5056199;28;20091;-77
2022/04/06 11:22:43;;;;;;;19.63;7.47;;;10.60;99.90;;;;;;5041695;28;20126;-77
2022/04/06 11:25:11;;;;;;;19.13;8.30;;;10.50;99.90;;;;;;5104828;28;20395;-77
2022/04/06 11:27:40;;;;;;;16.37;7.50;;;10.50;99.90;;;;;;5039837;28;20047;-78
2022/04/06 11:30:07;;;;;;;19.03;8.50;;;10.50;99.90;;;;;;5074610;28;20046;-77
2022/04/06 11:32:33;;;;;;;15.90;7.87;;;10.50;99.90;;;;;;5073042;28;20093;-77
2022/04/06 11:35:00;;;;;;;18.83;8.10;;;10.50;99.90;;;;;;5058006;28;20681;-79
2022/04/06 11:37:27;;;;;;;14.33;7.87;;;10.50;99.90;;;;;;5078687;28;20040;-77
2022/04/06 11:39:57;;;;;;;22.60;9.23;;;10.50;99.90;;;;;;5070361;28;20039;-76
2022/04/06 11:42:23;;;;;;;17.10;7.97;;;10.60;99.90;;;;;;5057946;28;20082;-77
2022/04/06 11:44:50;;;;;;;20.57;8.33;;;10.70;99.90;;;;;;5071349;28;20434;-78
2022/04/06 11:47:25;;;;;;;18.97;7.50;;;10.70;99.90;;;;;;5065236;28;20644;-77
2022/04/06 11:49:51;;;;;;;14.93;7.03;;;10.80;99.90;;;;;;5070453;28;20496;-78
2022/04/06 11:52:16;;;;;;;15.43;6.47;;;10.70;99.90;;;;;;5055907;28;20094;-78
2022/04/06 11:54:49;;;;;;;19.67;7.20;;;10.70;99.90;;;;;;5069594;28;20040;-78
2022/04/06 11:57:15;;;;;;;15.10;7.30;;;10.70;99.90;;;;;;5053389;28;20124;-78
2022/04/06 11:59:53;;;;;;;18.67;8.97;;;10.70;99.90;;;;;;5073742;28;20390;-77
2022/04/06 12:02:18;;;;;;;21.70;8.90;;;10.70;99.90;;;;;;5070527;28;20476;-77
2022/04/06 12:04:48;;;;;;;19.47;8.10;;;10.70;99.90;;;;;;5038395;28;20186;-79
2022/04/06 12:07:18;;;;;;;13.07;7.20;;;10.80;99.90;;;;;;5051256;28;20033;-78
2022/04/06 12:09:44;;;;;;;17.37;6.93;;;10.90;99.90;;;;;;5054676;28;20409;-78
2022/04/06 12:12:10;;;;;;;16.57;6.80;;;11.10;99.90;;;;;;5069636;28;20048;-79
2022/04/06 12:14:36;;;;;;;11.77;6.97;;;11.30;99.90;;;;;;5067845;28;20041;-78
2022/04/06 12:17:03;;;;;;;14.10;6.80;;;11.40;99.90;;;;;;5075582;28;20119;-78
2022/04/06 12:19:30;;;;;;;16.40;7.73;;;11.50;99.90;;;;;;5070428;28;20404;-77
2022/04/06 12:22:05;;;;;;;17.13;7.03;;;11.50;99.90;;;;;;5057133;28;20040;-79
2022/04/06 12:24:36;;;;;;;17.77;7.97;;;11.50;99.90;;;;;;5067334;28;20044;-78
2022/04/06 12:27:03;;;;;;;21.27;8.20;;;11.50;99.90;;;;;;5089832;28;20093;-79
2022/04/06 12:29:29;;;;;;;15.93;7.17;;;11.40;99.90;;;;;;5067015;28;20391;-77
2022/04/06 12:31:55;;;;;;;15.70;7.10;;;11.40;99.90;;;;;;5070148;28;20036;-76
2022/04/06 12:34:31;;;;;;;15.20;6.87;;;11.40;99.90;;;;;;5057092;28;20044;-78
2022/04/06 12:36:56;;;;;;;14.87;7.20;;;11.40;99.90;;;;;;5068176;28;20410;-77
2022/04/06 12:39:22;;;;;;;19.03;6.63;;;11.40;99.90;;;;;;5076653;28;20044;-78
2022/04/06 12:41:55;;;;;;;12.10;6.40;;;11.50;99.90;;;;;;5072173;28;20118;-76
2022/04/06 12:44:22;;;;;;;16.95;6.63;;;11.40;99.90;;;;;;5054630;28;20091;-77
2022/04/06 12:46:49;;;;;;;20.23;6.87;;;11.40;99.90;;;;;;5069344;28;20044;-77
2022/04/06 12:49:19;;;;;;;13.60;6.20;;;11.30;99.90;;;;;;5069596;28;20044;-79
2022/04/06 12:51:47;;;;;;;17.57;6.87;;;11.30;99.90;;;;;;5057196;28;20085;-76